Time;durP1;ratioP1;P1;durP2;ratioP2;P2;SDS_P1;SDS_P2;PMS_P1;PMS_P2;Temp;Humidity;BMP_temperature;BMP_pressure;BME280_temperature;BME280_humidity;BME280_pressure;Samples;Min_cycle;Max_cycle;Signal;HPM_P1;HPM_P2
2021/08/01 00:01:37;;;;;;;3.43;1.50;;;22.60;92.60;;;;;;5054142;28;20164;-69
2021/08/01 00:04:04;;;;;;;5.40;1.47;;;22.80;92.30;;;;;;5053731;28;20225;-68
2021/08/01 00:06:32;;;;;;;4.13;1.60;;;23.00;92.00;;;;;;5052751;28;20337;-67
2021/08/01 00:08:59;;;;;;;4.90;1.60;;;23.20;91.40;;;;;;5051778;28;20540;-69
2021/08/01 00:11:26;;;;;;;2.17;1.10;;;23.30;91.40;;;;;;5060782;28;20576;-70
2021/08/01 00:13:54;;;;;;;7.30;1.60;;;23.40;91.10;;;;;;5071992;28;20175;-68
2021/08/01 00:16:24;;;;;;;7.70;2.07;;;23.30;90.90;;;;;;5066871;28;20187;-69
2021/08/01 00:18:52;;;;;;;2.43;1.40;;;23.20;91.00;;;;;;5056586;28;20215;-68
2021/08/01 00:21:19;;;;;;;4.60;1.20;;;23.20;91.20;;;;;;5062501;28;20183;-69
2021/08/01 00:23:47;;;;;;;5.70;1.30;;;23.20;90.70;;;;;;5054294;28;20180;-69
2021/08/01 00:26:14;;;;;;;6.90;1.50;;;23.10;91.00;;;;;;5069841;28;20179;-69
2021/08/01 00:28:41;;;;;;;5.10;1.40;;;23.10;90.90;;;;;;5057239;28;20172;-68
2021/08/01 00:31:09;;;;;;;3.80;1.30;;;23.10;91.00;;;;;;5059230;27;20637;-68
2021/08/01 00:33:36;;;;;;;4.60;1.40;;;23.10;90.90;;;;;;5059319;28;20180;-69
2021/08/01 00:36:03;;;;;;;4.17;1.40;;;23.10;91.00;;;;;;5051483;28;20186;-68
2021/08/01 00:38:30;;;;;;;6.50;1.47;;;23.10;90.90;;;;;;5049842;28;20269;-68
2021/08/01 00:40:58;;;;;;;2.57;1.20;;;23.10;90.80;;;;;;5059306;28;20183;-70
2021/08/01 00:43:26;;;;;;;9.07;1.77;;;23.10;90.60;;;;;;5055475;28;20218;-67
2021/08/01 00:45:53;;;;;;;9.10;1.43;;;23.20;90.70;;;;;;5043638;28;20204;-68
2021/08/01 00:48:23;;;;;;;4.27;1.60;;;23.10;90.60;;;;;;5055526;28;20590;-69
2021/08/01 00:50:51;;;;;;;4.03;1.37;;;23.10;91.10;;;;;;5055886;28;20206;-68
2021/08/01 00:53:18;;;;;;;6.33;1.30;;;23.10;90.70;;;;;;5052993;28;20179;-68
2021/08/01 00:55:46;;;;;;;4.43;1.53;;;23.00;90.70;;;;;;5056297;28;20638;-68
2021/08/01 00:58:13;;;;;;;4.27;1.23;;;23.00;90.80;;;;;;5056723;28;20227;-68
2021/08/01 01:01:05;;;;;;;6.97;1.50;;;23.00;90.70;;;;;;5052592;28;20672;-69
2021/08/01 01:04:01;;;;;;;4.53;1.20;;;23.10;90.70;;;;;;5053281;28;20192;-68
2021/08/01 01:07:07;;;;;;;2.90;1.40;;;23.30;90.60;;;;;;5053070;28;20186;-69
2021/08/01 01:09:45;;;;;;;4.03;1.23;;;23.50;90.30;;;;;;5049480;28;20241;-72
2021/08/01 01:12:20;;;;;;;4.67;1.43;;;23.60;90.20;;;;;;5040674;28;20675;-69
2021/08/01 01:14:55;;;;;;;3.30;1.30;;;23.70;90.20;;;;;;5043411;28;20183;-69
2021/08/01 01:17:30;;;;;;;3.60;1.33;;;23.70;90.00;;;;;;5050149;28;20219;-69
2021/08/01 01:20:18;;;;;;;5.43;1.63;;;23.60;90.30;;;;;;5046855;28;20188;-70
2021/08/01 01:23:00;;;;;;;7.03;1.73;;;23.60;90.00;;;;;;5039678;28;20180;-67
2021/08/01 01:26:01;;;;;;;5.27;1.60;;;23.50;90.10;;;;;;5052137;28;20176;-68
2021/08/01 01:28:57;;;;;;;4.30;1.53;;;23.40;90.20;;;;;;5053110;28;20229;-69
2021/08/01 01:31:32;;;;;;;5.43;1.50;;;23.50;90.80;;;;;;5032738;28;20573;-68
2021/08/01 01:34:12;;;;;;;5.47;1.63;;;23.60;90.30;;;;;;5051988;28;20676;-68
2021/08/01 01:36:45;;;;;;;4.20;1.87;;;23.90;89.80;;;;;;5051733;28;20219;-68
2021/08/01 01:39:13;;;;;;;2.67;1.27;;;24.30;88.20;;;;;;5052481;28;20665;-68
2021/08/01 01:41:44;;;;;;;4.63;1.43;;;24.70;87.40;;;;;;5051805;28;20172;-69
2021/08/01 01:44:12;;;;;;;4.07;1.40;;;24.90;86.90;;;;;;5052903;28;20176;-67
2021/08/01 01:46:42;;;;;;;4.77;1.67;;;24.90;86.60;;;;;;5051972;28;20187;-68
2021/08/01 01:49:12;;;;;;;3.83;1.30;;;25.00;86.30;;;;;;5044604;28;20259;-68
2021/08/01 01:51:40;;;;;;;7.57;1.40;;;25.30;85.90;;;;;;5051388;28;20172;-67
2021/08/01 01:54:08;;;;;;;3.67;1.53;;;25.60;85.10;;;;;;5050166;28;20176;-69
2021/08/01 01:56:37;;;;;;;4.47;1.40;;;25.90;84.30;;;;;;5052737;28;20211;-68
2021/08/01 01:59:04;;;;;;;5.50;1.60;;;25.90;84.20;;;;;;5052402;28;20578;-68
2021/08/01 02:01:32;;;;;;;3.83;1.67;;;26.00;83.90;;;;;;5052026;28;20214;-68
2021/08/01 02:04:00;;;;;;;3.17;1.40;;;26.10;84.40;;;;;;5051220;28;20176;-68
2021/08/01 02:06:27;;;;;;;4.13;1.50;;;26.00;83.50;;;;;;5044461;28;20187;-68
2021/08/01 02:08:57;;;;;;;4.70;1.60;;;25.90;83.00;;;;;;5047387;28;20646;-68
2021/08/01 02:11:32;;;;;;;4.03;1.80;;;25.80;83.90;;;;;;5051188;28;20164;-69
2021/08/01 02:14:10;;;;;;;4.60;1.97;;;26.00;84.30;;;;;;5050509;28;20190;-69
2021/08/01 02:16:41;;;;;;;8.53;1.90;;;26.00;83.20;;;;;;5068280;28;20179;-67
2021/08/01 02:19:11;;;;;;;3.77;1.43;;;25.80;83.40;;;;;;5060210;28;20237;-68
2021/08/01 02:21:41;;;;;;;6.67;1.73;;;26.00;83.00;;;;;;5068016;28;20198;-69
2021/08/01 02:24:10;;;;;;;7.57;1.60;;;26.10;82.90;;;;;;5072169;28;20224;-68
2021/08/01 02:26:39;;;;;;;3.83;1.30;;;26.40;81.90;;;;;;5048887;28;20184;-68
2021/08/01 02:29:08;;;;;;;7.43;1.87;;;26.60;81.50;;;;;;5058342;28;20171;-69
2021/08/01 02:31:36;;;;;;;2.97;1.30;;;26.80;81.40;;;;;;5062069;28;20226;-68
2021/08/01 02:34:05;;;;;;;4.83;1.70;;;26.90;79.20;;;;;;5056020;28;20637;-68
2021/08/01 02:36:34;;;;;;;5.23;1.50;;;26.90;78.30;;;;;;5051214;28;20243;-67
2021/08/01 02:39:02;;;;;;;3.73;1.60;;;26.40;77.50;;;;;;5070037;28;20178;-69
2021/08/01 02:41:46;;;;;;;3.37;1.70;;;25.80;77.90;;;;;;5062615;28;20172;-68
2021/08/01 02:44:17;;;;;;;8.13;1.60;;;25.40;78.60;;;;;;5070545;28;20270;-67
2021/08/01 02:46:47;;;;;;;5.43;1.50;;;25.20;79.80;;;;;;5061880;28;20190;-67
2021/08/01 02:49:24;;;;;;;7.87;1.90;;;25.40;81.10;;;;;;5075108;28;20206;-68
2021/08/01 02:51:55;;;;;;;5.77;1.83;;;25.20;81.50;;;;;;5068498;28;20183;-67
2021/08/01 02:54:24;;;;;;;3.17;1.53;;;25.10;82.30;;;;;;5043024;28;20179;-67
2021/08/01 02:57:01;;;;;;;7.00;2.03;;;24.90;82.20;;;;;;5055264;28;20216;-66
2021/08/01 02:59:30;;;;;;;6.23;1.63;;;24.50;82.80;;;;;;5055518;28;20205;-67
2021/08/01 03:02:00;;;;;;;7.87;1.90;;;24.20;83.20;;;;;;5056247;28;20176;-67
2021/08/01 03:04:27;;;;;;;4.23;1.57;;;24.00;83.60;;;;;;5050647;28;20188;-68
2021/08/01 03:06:57;;;;;;;5.53;2.00;;;23.90;84.20;;;;;;5050022;28;20265;-67
2021/08/01 03:09:25;;;;;;;4.40;1.40;;;23.90;83.90;;;;;;5051497;28;20175;-67
2021/08/01 03:11:52;;;;;;;3.50;1.80;;;24.00;83.70;;;;;;5047801;28;20188;-67
2021/08/01 03:14:19;;;;;;;7.33;1.67;;;24.00;83.70;;;;;;5053922;28;20180;-68
2021/08/01 03:16:46;;;;;;;5.67;1.53;;;23.90;84.00;;;;;;5054603;28;20261;-68
2021/08/01 03:19:14;;;;;;;6.73;1.43;;;23.80;83.90;;;;;;5053725;28;20198;-66
2021/08/01 03:21:41;;;;;;;4.77;1.57;;;23.80;84.40;;;;;;5053965;28;20523;-67
2021/08/01 03:24:08;;;;;;;2.77;1.27;;;23.60;83.90;;;;;;5055015;28;20195;-68
2021/08/01 03:26:36;;;;;;;1.90;1.30;;;23.50;84.60;;;;;;5054018;28;20653;-67
2021/08/01 03:29:03;;;;;;;4.90;1.70;;;23.50;84.70;;;;;;5080283;28;20199;-67
2021/08/01 03:31:30;;;;;;;4.40;1.50;;;23.30;84.20;;;;;;5053728;28;20269;-67
2021/08/01 03:33:57;;;;;;;4.50;1.33;;;23.30;84.20;;;;;;5054409;28;20588;-67
2021/08/01 03:36:25;;;;;;;3.43;1.73;;;23.20;83.60;;;;;;5052899;28;20191;-68
2021/08/01 03:38:52;;;;;;;6.13;1.87;;;23.10;83.70;;;;;;5050481;28;20208;-68
2021/08/01 03:41:20;;;;;;;11.45;2.38;;;23.00;90.20;;;;;;5052288;28;20409;-67
2021/08/01 03:43:47;;;;;;;12.83;2.13;;;22.60;92.90;;;;;;5047460;28;20183;-67
2021/08/01 03:46:15;;;;;;;10.80;2.20;;;22.30;94.50;;;;;;5049939;28;20719;-67
2021/08/01 03:48:43;;;;;;;17.30;3.30;;;22.00;95.70;;;;;;5053165;28;20222;-67
2021/08/01 03:51:11;;;;;;;19.27;4.00;;;21.80;97.00;;;;;;5053983;28;20208;-67
2021/08/01 03:53:38;;;;;;;19.20;3.83;;;21.50;98.00;;;;;;5053589;28;20184;-68
2021/08/01 03:56:05;;;;;;;18.10;3.20;;;21.30;98.50;;;;;;5051120;28;20184;-67
2021/08/01 03:58:33;;;;;;;13.43;2.87;;;21.30;98.70;;;;;;5048841;28;20303;-67
2021/08/01 04:01:01;;;;;;;6.33;1.97;;;21.20;99.10;;;;;;5051965;28;20634;-67
2021/08/01 04:03:28;;;;;;;9.73;2.33;;;21.20;95.30;;;;;;5053141;28;20179;-67
2021/08/01 04:05:55;;;;;;;1.00;0.70;;;21.30;95.10;;;;;;5052329;28;20180;-70
2021/08/01 04:08:23;;;;;;;4.00;0.70;;;21.50;88.50;;;;;;5051805;28;20667;-69
2021/08/01 04:10:50;;;;;;;4.70;0.40;;;21.50;86.10;;;;;;5052649;28;20582;-67
2021/08/01 04:13:17;;;;;;;3.33;0.73;;;21.50;86.00;;;;;;5052974;28;20188;-67
2021/08/01 04:15:48;;;;;;;0.87;0.70;;;21.40;85.70;;;;;;5052912;28;20179;-68
2021/08/01 04:18:15;;;;;;;2.70;0.50;;;21.30;85.30;;;;;;5053379;28;20212;-68
2021/08/01 04:20:42;;;;;;;2.13;0.50;;;21.20;85.10;;;;;;5049119;28;20189;-70
2021/08/01 04:23:10;;;;;;;0.83;0.50;;;21.20;84.80;;;;;;5049038;28;20187;-67
2021/08/01 04:25:37;;;;;;;0.53;0.47;;;21.10;85.00;;;;;;5047203;28;20663;-69
2021/08/01 04:28:05;;;;;;;0.93;0.40;;;21.00;84.70;;;;;;5049919;28;20180;-67
2021/08/01 04:30:32;;;;;;;8.20;0.50;;;21.10;84.90;;;;;;5049910;28;20318;-70
2021/08/01 04:32:59;;;;;;;2.10;0.83;;;21.10;85.00;;;;;;5044450;28;20293;-68
2021/08/01 04:35:27;;;;;;;4.23;0.80;;;21.00;85.00;;;;;;5051446;28;20176;-68
2021/08/01 04:37:54;;;;;;;0.90;0.60;;;20.90;85.30;;;;;;5047937;28;20257;-70
2021/08/01 04:40:21;;;;;;;4.57;0.80;;;20.80;85.60;;;;;;5047045;28;20538;-71
2021/08/01 04:42:49;;;;;;;1.33;0.60;;;20.90;85.90;;;;;;5049438;28;20175;-69
2021/08/01 04:45:16;;;;;;;11.33;1.13;;;20.90;85.70;;;;;;5048522;28;20184;-71
2021/08/01 04:47:43;;;;;;;2.70;0.50;;;21.00;85.80;;;;;;5049199;28;20183;-71
2021/08/01 04:50:11;;;;;;;2.87;0.60;;;21.00;86.50;;;;;;5049063;28;20183;-70
2021/08/01 04:52:40;;;;;;;2.47;0.60;;;21.00;85.80;;;;;;5051932;28;20199;-69
2021/08/01 04:55:08;;;;;;;1.37;0.60;;;20.80;86.20;;;;;;5049331;28;20176;-70
2021/08/01 04:57:36;;;;;;;1.53;0.50;;;20.70;85.80;;;;;;5050428;28;20652;-68
2021/08/01 05:00:06;;;;;;;0.87;0.43;;;20.60;85.60;;;;;;5042880;28;20280;-70
2021/08/01 05:02:33;;;;;;;1.03;0.60;;;20.60;85.90;;;;;;5049004;28;20295;-68
2021/08/01 05:05:04;;;;;;;2.30;0.50;;;20.60;86.10;;;;;;5042926;28;20176;-70
2021/08/01 05:07:32;;;;;;;0.60;0.40;;;20.70;85.90;;;;;;5045141;28;20291;-74
2021/08/01 05:10:00;;;;;;;2.50;0.80;;;20.70;84.80;;;;;;5049822;28;20191;-71
2021/08/01 05:12:28;;;;;;;1.70;0.50;;;20.80;84.20;;;;;;5050448;28;20188;-70
2021/08/01 05:14:55;;;;;;;1.43;0.40;;;20.80;84.70;;;;;;5051503;28;20542;-70
2021/08/01 05:17:22;;;;;;;0.73;0.50;;;20.60;84.90;;;;;;5050726;28;20294;-69
2021/08/01 05:19:50;;;;;;;1.13;0.40;;;20.60;84.90;;;;;;5049458;28;20576;-70
2021/08/01 05:22:17;;;;;;;0.50;0.30;;;20.50;84.60;;;;;;5046889;28;20646;-69
2021/08/01 05:24:44;;;;;;;0.50;0.30;;;20.50;84.80;;;;;;5049320;28;20581;-70
2021/08/01 05:27:12;;;;;;;0.30;0.30;;;20.50;84.80;;;;;;5046655;28;20599;-70
2021/08/01 05:29:39;;;;;;;0.60;0.40;;;20.40;84.80;;;;;;5049028;28;20276;-69
2021/08/01 05:32:07;;;;;;;0.40;0.40;;;20.40;85.30;;;;;;5044554;28;20232;-69
2021/08/01 05:34:34;;;;;;;3.27;0.47;;;20.40;85.30;;;;;;5047896;28;20181;-70
2021/08/01 05:37:02;;;;;;;0.40;0.40;;;20.30;85.40;;;;;;5048400;28;20221;-69
2021/08/01 05:39:29;;;;;;;0.63;0.33;;;20.30;84.60;;;;;;5045229;28;20184;-70
2021/08/01 05:41:56;;;;;;;0.70;0.30;;;20.20;84.70;;;;;;5049955;28;20207;-68
2021/08/01 05:44:24;;;;;;;1.73;0.27;;;20.20;83.30;;;;;;5048442;28;20180;-70
2021/08/01 05:46:51;;;;;;;0.47;0.47;;;20.10;83.00;;;;;;5044746;28;20183;-70
2021/08/01 05:49:18;;;;;;;1.63;0.57;;;20.00;83.00;;;;;;5050399;28;20606;-68
2021/08/01 05:51:46;;;;;;;0.30;0.30;;;20.00;83.30;;;;;;5041609;28;20211;-68
2021/08/01 05:54:13;;;;;;;0.80;0.40;;;20.00;83.70;;;;;;5050179;28;20199;-66
2021/08/01 05:56:40;;;;;;;2.30;0.70;;;19.90;84.20;;;;;;5048188;28;20279;-67
2021/08/01 05:59:07;;;;;;;0.40;0.40;;;19.90;84.70;;;;;;5045609;28;20675;-67
2021/08/01 06:01:35;;;;;;;0.77;0.40;;;19.80;84.80;;;;;;5050882;28;20175;-67
2021/08/01 06:04:02;;;;;;;0.87;0.67;;;19.80;85.30;;;;;;5048573;28;20179;-68
2021/08/01 06:06:29;;;;;;;0.60;0.50;;;19.80;85.80;;;;;;5048152;28;20891;-67
2021/08/01 06:08:57;;;;;;;2.07;0.53;;;19.80;86.40;;;;;;5049117;28;20184;-67
2021/08/01 06:11:24;;;;;;;1.13;0.60;;;19.70;87.20;;;;;;5049767;28;20244;-66
2021/08/01 06:13:51;;;;;;;0.87;0.30;;;19.70;87.60;;;;;;5048984;28;20217;-67
2021/08/01 06:16:19;;;;;;;0.40;0.40;;;19.60;88.20;;;;;;5049465;28;20540;-67
2021/08/01 06:18:47;;;;;;;0.70;0.50;;;19.60;88.70;;;;;;5046218;28;20223;-68
2021/08/01 06:21:16;;;;;;;0.30;0.30;;;19.50;86.70;;;;;;5050802;28;20650;-67
2021/08/01 06:23:46;;;;;;;0.40;0.40;;;19.50;87.20;;;;;;5047004;28;20187;-68
2021/08/01 06:26:14;;;;;;;1.53;0.53;;;19.50;86.70;;;;;;5050715;28;20207;-67
2021/08/01 06:28:42;;;;;;;0.47;0.47;;;19.40;85.40;;;;;;5056130;28;20186;-69
2021/08/01 06:31:09;;;;;;;0.47;0.47;;;19.30;84.30;;;;;;5048546;28;20184;-68
2021/08/01 06:33:38;;;;;;;0.63;0.40;;;19.30;84.40;;;;;;5056444;28;20188;-69
2021/08/01 06:36:11;;;;;;;0.33;0.33;;;19.30;84.70;;;;;;5049299;28;20216;-67
2021/08/01 06:38:40;;;;;;;0.93;0.50;;;19.20;84.90;;;;;;5049845;28;20323;-67
2021/08/01 06:41:07;;;;;;;0.40;0.40;;;19.20;84.30;;;;;;5049601;28;20179;-68
2021/08/01 06:43:35;;;;;;;5.07;0.50;;;19.20;84.60;;;;;;5050365;28;20653;-69
2021/08/01 06:46:03;;;;;;;0.30;0.30;;;19.20;84.50;;;;;;5046076;28;20183;-68
2021/08/01 06:48:30;;;;;;;1.10;0.60;;;19.20;84.80;;;;;;5050660;28;20184;-69
2021/08/01 06:50:58;;;;;;;1.07;0.50;;;19.20;85.10;;;;;;5049191;28;20195;-69
2021/08/01 06:53:27;;;;;;;0.97;0.60;;;19.20;85.40;;;;;;5049971;28;20257;-68
2021/08/01 06:55:55;;;;;;;1.20;0.50;;;19.10;85.70;;;;;;5050366;28;20172;-70
2021/08/01 06:58:22;;;;;;;0.77;0.60;;;19.10;85.60;;;;;;5049305;28;20200;-68
2021/08/01 07:00:52;;;;;;;0.47;0.40;;;19.20;85.30;;;;;;5050743;28;20179;-68
2021/08/01 07:03:19;;;;;;;1.00;0.60;;;19.20;85.40;;;;;;5050113;28;20210;-70
2021/08/01 07:05:47;;;;;;;0.70;0.57;;;19.20;85.50;;;;;;5044833;28;20187;-68
2021/08/01 07:08:14;;;;;;;1.13;0.57;;;19.20;85.80;;;;;;5039487;28;20673;-68
2021/08/01 07:10:42;;;;;;;2.23;0.90;;;19.10;85.90;;;;;;5044263;28;20187;-67
2021/08/01 07:13:10;;;;;;;4.17;1.03;;;19.10;86.10;;;;;;5046262;28;20291;-70
2021/08/01 07:15:38;;;;;;;2.70;1.00;;;19.10;86.50;;;;;;5044391;28;20193;-69
2021/08/01 07:18:07;;;;;;;1.30;0.60;;;19.10;86.50;;;;;;5044026;28;20228;-68
2021/08/01 07:20:35;;;;;;;1.50;0.87;;;19.00;86.40;;;;;;5049131;28;20533;-70
2021/08/01 07:23:05;;;;;;;0.73;0.70;;;19.00;86.60;;;;;;5050470;28;20180;-68
2021/08/01 07:25:33;;;;;;;1.07;0.83;;;19.00;86.80;;;;;;5049646;28;20187;-68
2021/08/01 07:28:00;;;;;;;0.73;0.60;;;19.00;86.80;;;;;;5047672;28;20199;-69
2021/08/01 07:30:27;;;;;;;0.90;0.70;;;18.90;86.70;;;;;;5046351;28;20187;-68
2021/08/01 07:32:55;;;;;;;1.30;0.80;;;18.90;86.70;;;;;;5051406;28;20220;-68
2021/08/01 07:35:22;;;;;;;1.07;0.70;;;18.90;86.80;;;;;;5050225;28;20664;-68
2021/08/01 07:37:49;;;;;;;1.50;0.70;;;18.90;87.20;;;;;;5051567;28;20204;-69
2021/08/01 07:40:17;;;;;;;1.43;1.00;;;18.80;87.10;;;;;;5053188;28;20193;-69
2021/08/01 07:42:44;;;;;;;0.63;0.53;;;18.90;87.50;;;;;;5053830;28;20180;-67
2021/08/01 07:45:34;;;;;;;0.73;0.60;;;18.80;88.00;;;;;;5053279;28;20646;-68
2021/08/01 07:47:59;;;;;;;1.27;0.73;;;18.70;87.70;;;;;;5052027;28;20195;-67
2021/08/01 07:50:27;;;;;;;2.83;1.10;;;18.70;88.00;;;;;;5046598;28;20184;-67
2021/08/01 07:52:54;;;;;;;4.63;1.67;;;18.70;88.10;;;;;;5049390;28;20187;-70
2021/08/01 07:55:22;;;;;;;13.93;2.20;;;18.40;93.00;;;;;;5052752;28;20224;-68
2021/08/01 07:57:52;;;;;;;18.33;2.80;;;17.90;99.40;;;;;;5053273;28;20220;-67
2021/08/01 08:00:19;;;;;;;17.27;3.10;;;17.40;99.90;;;;;;5049779;28;20237;-65
2021/08/01 08:02:47;;;;;;;17.87;2.77;;;17.00;99.90;;;;;;5051425;28;20636;-66
2021/08/01 08:05:14;;;;;;;13.23;2.63;;;16.70;99.90;;;;;;5053930;28;20536;-66
2021/08/01 08:07:42;;;;;;;22.10;2.77;;;16.40;99.90;;;;;;5052542;28;20649;-66
2021/08/01 08:10:10;;;;;;;16.90;2.60;;;16.20;99.90;;;;;;5050049;28;20210;-66
2021/08/01 08:12:38;;;;;;;14.60;2.57;;;16.10;99.90;;;;;;5052414;28;20205;-67
2021/08/01 08:15:08;;;;;;;10.30;2.47;;;16.00;99.90;;;;;;5048949;28;20194;-66
2021/08/01 08:17:35;;;;;;;22.30;3.37;;;15.90;99.90;;;;;;5052641;28;20217;-69
2021/08/01 08:20:06;;;;;;;20.67;3.03;;;15.80;99.90;;;;;;5043070;28;20188;-67
2021/08/01 08:22:33;;;;;;;16.47;3.20;;;15.60;99.90;;;;;;5045970;28;20636;-68
2021/08/01 08:25:01;;;;;;;23.70;2.30;;;15.40;99.90;;;;;;5050515;28;20205;-67
2021/08/01 08:27:28;;;;;;;19.97;3.03;;;15.30;99.90;;;;;;5046389;28;20206;-68
2021/08/01 08:29:55;;;;;;;16.60;2.70;;;15.20;99.90;;;;;;5049454;28;20267;-66
2021/08/01 08:32:23;;;;;;;15.77;2.17;;;15.10;99.90;;;;;;5052118;28;20621;-68
2021/08/01 08:34:50;;;;;;;13.43;2.67;;;15.10;99.90;;;;;;5046334;28;20184;-67
2021/08/01 08:37:17;;;;;;;13.67;2.70;;;15.00;99.90;;;;;;5051856;28;20671;-66
2021/08/01 08:39:45;;;;;;;14.60;2.10;;;14.90;99.90;;;;;;5048307;28;20204;-66
2021/08/01 08:42:18;;;;;;;14.90;2.93;;;14.90;99.90;;;;;;5051773;28;20187;-66
2021/08/01 08:44:46;;;;;;;11.30;1.90;;;14.90;99.90;;;;;;5046897;28;20202;-66
2021/08/01 08:47:20;;;;;;;19.50;2.93;;;14.90;99.90;;;;;;5044054;28;20652;-66
2021/08/01 08:49:48;;;;;;;14.53;2.30;;;14.80;99.90;;;;;;5043764;28;20188;-66
2021/08/01 08:52:17;;;;;;;12.80;2.10;;;14.80;99.90;;;;;;5048674;28;20252;-66
2021/08/01 08:54:51;;;;;;;17.93;3.07;;;14.90;99.90;;;;;;5049284;28;20193;-66
2021/08/01 08:57:29;;;;;;;26.67;3.00;;;14.80;99.90;;;;;;5048690;28;20265;-66
2021/08/01 09:00:10;;;;;;;13.43;1.97;;;14.80;99.90;;;;;;5046958;28;20187;-66
2021/08/01 09:02:38;;;;;;;10.60;2.67;;;14.80;99.90;;;;;;5045024;28;20188;-66
2021/08/01 09:05:08;;;;;;;12.00;2.00;;;14.80;99.90;;;;;;5049870;28;20217;-66
2021/08/01 09:07:36;;;;;;;7.73;2.07;;;14.80;99.90;;;;;;5052374;28;20184;-66
2021/08/01 09:10:04;;;;;;;14.30;2.10;;;14.70;99.90;;;;;;5051824;28;20184;-67
2021/08/01 09:12:39;;;;;;;11.60;2.30;;;14.70;99.90;;;;;;5050021;28;20692;-68
2021/08/01 09:15:14;;;;;;;9.90;2.23;;;14.70;99.90;;;;;;5051495;28;20238;-67
2021/08/01 09:17:42;;;;;;;8.77;1.97;;;14.70;99.90;;;;;;5049761;28;20211;-66
2021/08/01 09:20:19;;;;;;;11.07;1.37;;;14.70;99.90;;;;;;5041093;28;20180;-66
2021/08/01 09:23:01;;;;;;;18.80;2.10;;;14.70;99.90;;;;;;5048254;28;20571;-67
2021/08/01 09:25:39;;;;;;;10.87;1.70;;;14.70;99.90;;;;;;5048761;28;20214;-70
2021/08/01 09:28:09;;;;;;;10.43;1.77;;;14.70;99.90;;;;;;5051979;28;20187;-69
2021/08/01 09:30:52;;;;;;;19.03;2.00;;;14.70;99.90;;;;;;5045806;28;20638;-69
2021/08/01 09:33:41;;;;;;;10.07;1.47;;;14.70;99.90;;;;;;5039930;28;20243;-67
2021/08/01 09:36:15;;;;;;;6.10;1.50;;;14.70;99.90;;;;;;5048989;28;20204;-66
2021/08/01 09:38:49;;;;;;;8.27;1.40;;;14.60;99.90;;;;;;5052504;28;20300;-67
2021/08/01 09:41:19;;;;;;;8.73;1.47;;;14.70;99.90;;;;;;5044697;28;20691;-67
2021/08/01 09:43:49;;;;;;;6.80;1.63;;;14.60;99.90;;;;;;5043202;28;20288;-66
2021/08/01 09:46:20;;;;;;;9.43;2.00;;;14.60;99.90;;;;;;5048536;28;20201;-66
2021/08/01 09:49:19;;;;;;;12.93;2.00;;;14.60;99.90;;;;;;5052151;28;20191;-66
2021/08/01 09:52:05;;;;;;;9.83;1.87;;;14.60;99.90;;;;;;5046056;28;20207;-67
2021/08/01 09:54:49;;;;;;;8.97;1.57;;;14.50;99.90;;;;;;5047299;28;20188;-68
2021/08/01 09:57:20;;;;;;;9.03;2.27;;;14.40;99.90;;;;;;5050799;28;20204;-67
2021/08/01 10:00:09;;;;;;;9.43;1.83;;;14.40;99.90;;;;;;5050232;28;20184;-67
2021/08/01 10:02:41;;;;;;;10.10;2.20;;;14.30;99.90;;;;;;5051425;28;20184;-69
2021/08/01 10:05:21;;;;;;;6.47;1.40;;;14.30;99.90;;;;;;5045839;28;20188;-68
2021/08/01 10:07:51;;;;;;;7.63;1.97;;;14.20;99.90;;;;;;5046873;28;20660;-66
2021/08/01 10:10:23;;;;;;;6.73;1.60;;;14.20;99.90;;;;;;5050110;28;20204;-66
2021/08/01 10:12:52;;;;;;;8.50;1.50;;;14.20;99.90;;;;;;5050248;28;20176;-69
2021/08/01 10:15:20;;;;;;;10.60;1.57;;;14.20;99.90;;;;;;5050672;28;20188;-67
2021/08/01 10:17:51;;;;;;;8.80;2.10;;;14.20;99.90;;;;;;5041153;28;20279;-68
2021/08/01 10:20:19;;;;;;;10.03;1.63;;;14.30;99.90;;;;;;5050926;28;20190;-66
2021/08/01 10:22:47;;;;;;;15.73;2.13;;;14.30;99.90;;;;;;5042630;28;20264;-65
2021/08/01 10:25:32;;;;;;;9.53;1.70;;;14.30;99.90;;;;;;5047747;28;20651;-67
2021/08/01 10:28:01;;;;;;;8.30;2.00;;;14.40;99.90;;;;;;5048941;28;20183;-67
2021/08/01 10:30:30;;;;;;;14.83;1.70;;;14.40;99.90;;;;;;5039542;28;20275;-66
2021/08/01 10:33:10;;;;;;;15.90;1.70;;;14.30;99.90;;;;;;5043260;28;20234;-66
2021/08/01 10:35:48;;;;;;;6.93;1.60;;;14.30;99.90;;;;;;5046873;28;20198;-66
2021/08/01 10:38:24;;;;;;;9.10;1.50;;;14.20;99.90;;;;;;5043389;28;20716;-67
2021/08/01 10:40:58;;;;;;;8.67;1.50;;;14.30;99.90;;;;;;5049638;28;20191;-67
2021/08/01 10:43:31;;;;;;;5.83;1.27;;;14.20;99.90;;;;;;5048949;28;20183;-66
2021/08/01 10:46:00;;;;;;;7.83;1.53;;;14.20;99.90;;;;;;5045487;28;20187;-66
2021/08/01 10:48:30;;;;;;;9.03;1.80;;;14.10;99.90;;;;;;5043305;28;20180;-66
2021/08/01 10:50:58;;;;;;;9.53;1.60;;;14.10;99.90;;;;;;5055924;28;20179;-67
2021/08/01 10:53:27;;;;;;;5.37;1.67;;;14.10;99.90;;;;;;5047992;28;20200;-67
2021/08/01 10:56:15;;;;;;;8.33;1.30;;;14.00;99.90;;;;;;5048802;28;20610;-66
2021/08/01 10:58:42;;;;;;;6.93;1.30;;;14.00;99.90;;;;;;5047532;28;20242;-67
2021/08/01 11:01:10;;;;;;;5.47;1.30;;;14.00;99.90;;;;;;5051755;28;20303;-68
2021/08/01 11:03:42;;;;;;;6.63;1.30;;;13.90;99.90;;;;;;5049246;28;20197;-65
2021/08/01 11:06:36;;;;;;;4.60;1.23;;;13.80;99.90;;;;;;5051264;28;20232;-66
2021/08/01 11:09:15;;;;;;;6.27;1.10;;;13.80;99.90;;;;;;5051266;28;20175;-66
2021/08/01 11:11:45;;;;;;;5.40;1.20;;;13.80;99.90;;;;;;5053373;28;20218;-66
2021/08/01 11:14:50;;;;;;;8.57;1.47;;;13.60;99.90;;;;;;5051000;28;20195;-66
2021/08/01 11:17:40;;;;;;;8.47;2.03;;;13.60;99.90;;;;;;5050092;28;20280;-67
2021/08/01 11:20:32;;;;;;;7.20;1.33;;;13.50;99.90;;;;;;5049753;28;20180;-65
2021/08/01 11:23:05;;;;;;;4.67;0.90;;;13.50;99.90;;;;;;5050725;28;20188;-65
2021/08/01 11:25:34;;;;;;;6.13;1.00;;;13.40;99.90;;;;;;5051327;28;20191;-65
2021/08/01 11:28:10;;;;;;;4.53;1.77;;;13.40;99.90;;;;;;5053994;28;20545;-65
2021/08/01 11:30:58;;;;;;;4.33;1.30;;;13.40;99.90;;;;;;5051778;28;20202;-65
2021/08/01 11:33:44;;;;;;;3.73;1.10;;;13.40;99.90;;;;;;5051393;28;20227;-65
2021/08/01 11:36:18;;;;;;;7.10;1.30;;;13.30;99.90;;;;;;5051572;28;20257;-68
2021/08/01 11:38:55;;;;;;;5.13;1.27;;;13.30;99.90;;;;;;5049850;28;20309;-66
2021/08/01 11:41:35;;;;;;;2.77;0.80;;;13.20;99.90;;;;;;5052659;28;20652;-68
2021/08/01 11:44:12;;;;;;;4.90;1.27;;;13.10;99.90;;;;;;5049247;28;20187;-68
2021/08/01 11:46:54;;;;;;;5.53;1.30;;;13.10;99.90;;;;;;5052484;28;20186;-68
2021/08/01 11:49:26;;;;;;;3.27;1.10;;;13.10;99.90;;;;;;5047784;28;20184;-68
2021/08/01 11:51:54;;;;;;;3.33;1.20;;;13.20;99.90;;;;;;5052048;28;20202;-66
2021/08/01 11:54:37;;;;;;;3.23;1.13;;;13.10;99.90;;;;;;5054666;28;20219;-68
2021/08/01 11:57:06;;;;;;;9.50;2.63;;;13.10;99.90;;;;;;5043596;28;20298;-67
2021/08/01 11:59:34;;;;;;;11.17;3.33;;;13.10;99.90;;;;;;5045849;28;20220;-66
2021/08/01 12:02:07;;;;;;;6.00;1.90;;;13.10;99.90;;;;;;5051244;28;20757;-68
2021/08/01 12:04:34;;;;;;;5.77;1.60;;;13.10;99.90;;;;;;5052725;28;20646;-67
2021/08/01 12:07:02;;;;;;;5.50;1.60;;;13.00;99.90;;;;;;5048991;28;20183;-67
2021/08/01 12:09:32;;;;;;;6.90;1.67;;;13.00;99.90;;;;;;5049215;28;20634;-67
2021/08/01 12:12:01;;;;;;;4.30;1.37;;;13.00;99.90;;;;;;5047690;28;20213;-67
2021/08/01 12:14:31;;;;;;;5.90;1.40;;;13.10;99.90;;;;;;5053603;28;20264;-66
2021/08/01 12:17:08;;;;;;;5.80;1.70;;;13.00;99.90;;;;;;5052455;28;20202;-67
2021/08/01 12:19:38;;;;;;;4.77;1.40;;;12.90;99.90;;;;;;5045782;28;20195;-67
2021/08/01 12:22:17;;;;;;;3.17;1.73;;;13.00;99.90;;;;;;5045784;28;20277;-67
2021/08/01 12:24:51;;;;;;;7.63;1.70;;;12.90;99.90;;;;;;5048667;28;20548;-66
2021/08/01 12:27:18;;;;;;;4.10;1.80;;;12.80;99.90;;;;;;5051270;28;20271;-67
2021/08/01 12:29:53;;;;;;;4.60;1.37;;;12.80;99.90;;;;;;5051932;28;20198;-67
2021/08/01 12:32:34;;;;;;;5.50;1.90;;;12.80;99.90;;;;;;5051618;28;20223;-67
2021/08/01 12:35:03;;;;;;;9.83;2.10;;;12.80;99.90;;;;;;5044798;28;20601;-66
2021/08/01 12:37:39;;;;;;;6.20;1.63;;;12.80;99.90;;;;;;5053071;28;20677;-66
2021/08/01 12:40:07;;;;;;;5.00;2.60;;;12.80;99.90;;;;;;5046974;28;20226;-66
2021/08/01 12:42:34;;;;;;;5.23;2.40;;;12.80;99.90;;;;;;5049369;28;20534;-66
2021/08/01 12:45:04;;;;;;;3.33;1.33;;;12.70;99.90;;;;;;5050155;28;20192;-65
2021/08/01 12:47:33;;;;;;;6.90;1.27;;;12.70;99.90;;;;;;5051795;28;20650;-66
2021/08/01 12:50:07;;;;;;;4.27;1.60;;;12.70;99.90;;;;;;5050280;28;20319;-66
2021/08/01 12:52:35;;;;;;;4.33;1.37;;;12.70;99.90;;;;;;5051017;28;20546;-66
2021/08/01 12:55:08;;;;;;;2.97;1.27;;;12.60;99.90;;;;;;5052344;28;20179;-67
2021/08/01 12:57:35;;;;;;;2.57;1.17;;;12.60;99.90;;;;;;5052044;28;20219;-66
2021/08/01 13:00:16;;;;;;;2.20;1.30;;;12.50;99.90;;;;;;5052716;28;20180;-66
2021/08/01 13:02:45;;;;;;;3.80;1.30;;;12.60;99.90;;;;;;5047941;28;20225;-66
2021/08/01 13:05:28;;;;;;;4.77;1.13;;;12.60;99.90;;;;;;5052463;28;20401;-66